Time;durP1;ratioP1;P1;durP2;ratioP2;P2;SDS_P1;SDS_P2;PMS_P1;PMS_P2;Temp;Humidity;BMP_temperature;BMP_pressure;BME280_temperature;BME280_humidity;BME280_pressure;Samples;Min_cycle;Max_cycle;Signal;HPM_P1;HPM_P2
2023/03/17 00:02:09;;;;;;;4.43;4.03;;;;;;;6.22;100.00;98405.56;5010125;28;20187;-60
2023/03/17 00:04:35;;;;;;;5.00;4.15;;;;;;;6.19;100.00;98360.31;5010035;28;20191;-60
2023/03/17 00:07:01;;;;;;;8.43;6.70;;;;;;;6.30;100.00;98350.31;5009907;28;20219;-60
2023/03/17 00:09:26;;;;;;;3.58;3.00;;;;;;;6.35;100.00;98342.38;5010053;28;20191;-60
2023/03/17 00:11:52;;;;;;;2.70;2.50;;;;;;;6.61;100.00;98396.63;5009964;28;20190;-60
2023/03/17 00:14:18;;;;;;;2.72;2.53;;;;;;;5.89;100.00;98315.66;5009951;28;20194;-60
2023/03/17 00:16:48;;;;;;;2.95;2.75;;;;;;;6.31;100.00;98394.81;5025435;28;20201;-60
2023/03/17 00:19:25;;;;;;;3.08;2.88;;;;;;;6.39;100.00;98411.50;5031284;28;20186;-60
2023/03/17 00:21:50;;;;;;;3.28;3.08;;;;;;;6.12;100.00;98371.81;5032107;28;20170;-60
2023/03/17 00:24:18;;;;;;;2.60;2.40;;;;;;;5.79;100.00;98327.31;5031985;28;20185;-60
2023/03/17 00:26:43;;;;;;;2.67;2.47;;;;;;;6.24;100.00;98396.88;5031865;28;20185;-60
2023/03/17 00:29:09;;;;;;;3.03;2.83;;;;;;;5.96;100.00;98350.41;5031989;28;20257;-60
2023/03/17 00:31:35;;;;;;;2.47;2.35;;;;;;;5.81;100.00;98332.38;5032496;28;20175;-60
2023/03/17 00:34:01;;;;;;;2.88;2.67;;;;;;;6.38;100.00;98399.56;5035967;28;20253;-60
2023/03/17 00:36:29;;;;;;;2.55;2.40;;;;;;;6.24;100.00;98349.81;5035884;28;20642;-60
2023/03/17 00:38:56;;;;;;;2.78;2.58;;;;;;;6.16;100.00;98334.78;5035914;28;20175;-60
2023/03/17 00:41:22;;;;;;;2.45;2.28;;;;;;;6.45;100.00;98395.78;5035778;28;20179;-60
2023/03/17 00:43:48;;;;;;;2.80;2.50;;;;;;;5.99;100.00;98334.84;5035522;28;20672;-60
2023/03/17 00:46:24;;;;;;;2.35;2.20;;;;;;;6.31;100.00;98403.38;5035708;28;20179;-60
2023/03/17 00:48:49;;;;;;;3.15;2.90;;;;;;;6.04;100.00;98383.38;5035718;28;20197;-60
2023/03/17 00:51:15;;;;;;;2.95;2.75;;;;;;;5.83;100.00;98345.97;5035311;28;20179;-60
2023/03/17 00:53:42;;;;;;;2.40;2.30;;;;;;;5.91;100.00;98346.41;5035578;28;20177;-60
2023/03/17 00:56:16;;;;;;;3.10;2.90;;;;;;;5.57;100.00;98306.19;5035561;28;20197;-60
2023/03/17 00:58:42;;;;;;;3.15;2.95;;;;;;;5.50;100.00;98330.50;5035584;28;20162;-60
2023/03/17 01:01:09;;;;;;;3.17;2.97;;;;;;;5.35;100.00;98315.84;5052846;28;20186;-60
2023/03/17 01:03:35;;;;;;;2.75;2.55;;;;;;;5.50;100.00;98345.06;5053008;28;20217;-60
2023/03/17 01:06:02;;;;;;;3.25;2.95;;;;;;;5.92;100.00;98368.59;5052951;28;20205;-60
2023/03/17 01:08:29;;;;;;;3.03;2.83;;;;;;;6.44;100.00;98430.09;5052823;28;20324;-60
2023/03/17 01:10:55;;;;;;;2.95;2.75;;;;;;;6.37;100.00;98397.06;5052865;28;20193;-60
2023/03/17 01:13:24;;;;;;;2.40;2.30;;;;;;;6.26;100.00;98419.91;5052799;28;20277;-60
2023/03/17 01:15:51;;;;;;;2.72;2.60;;;;;;;6.17;100.00;98376.75;5052703;28;20738;-60
2023/03/17 01:18:20;;;;;;;2.50;2.20;;;;;;;6.15;100.00;98335.72;5052707;28;20182;-60
2023/03/17 01:20:46;;;;;;;2.03;1.92;;;;;;;6.84;100.00;98428.81;5052666;28;20217;-60
2023/03/17 01:23:11;;;;;;;2.05;1.95;;;;;;;6.80;100.00;98424.75;5052387;28;20252;-60
2023/03/17 01:25:39;;;;;;;2.30;2.20;;;;;;;6.68;100.00;98407.41;5052463;28;20198;-60
2023/03/17 01:28:05;;;;;;;2.25;2.15;;;;;;;6.79;98.82;98418.78;5052381;28;20216;-60
2023/03/17 01:30:37;;;;;;;3.58;2.38;;;;;;;6.83;99.42;98447.75;5052411;28;20279;-60
2023/03/17 01:33:03;;;;;;;2.05;1.95;;;;;;;6.29;100.00;98366.63;5052505;28;20186;-60
2023/03/17 01:35:30;;;;;;;2.42;2.22;;;;;;;6.27;100.00;98381.31;5052231;28;20185;-60
2023/03/17 01:37:56;;;;;;;2.72;2.53;;;;;;;6.08;100.00;98343.81;5052292;28;20193;-60
2023/03/17 01:40:29;;;;;;;3.03;2.80;;;;;;;6.50;100.00;98437.47;5052323;28;20190;-60
2023/03/17 01:43:09;;;;;;;3.30;3.00;;;;;;;6.63;100.00;98446.22;5051778;28;20648;-60
2023/03/17 01:46:11;;;;;;;2.97;2.78;;;;;;;6.76;100.00;98452.38;5052077;28;20221;-60
2023/03/17 01:48:40;;;;;;;3.30;3.10;;;;;;;6.50;100.00;98393.78;5052105;28;20217;-60
2023/03/17 01:51:08;;;;;;;3.15;2.85;;;;;;;6.70;100.00;98421.84;5052095;28;20189;-60
2023/03/17 01:53:34;;;;;;;3.25;3.05;;;;;;;6.35;100.00;98386.88;5047606;28;20187;-60
2023/03/17 01:56:02;;;;;;;3.25;2.95;;;;;;;6.63;100.00;98441.06;5034497;28;20202;-60
2023/03/17 01:58:28;;;;;;;3.20;3.00;;;;;;;6.24;100.00;98386.59;5034392;28;20178;-60
2023/03/17 02:00:54;;;;;;;3.47;3.17;;;;;;;6.38;100.00;98448.41;5034422;28;20174;-60
2023/03/17 02:03:21;;;;;;;3.42;3.20;;;;;;;6.11;100.00;98405.31;5031791;28;20226;-60
2023/03/17 02:05:50;;;;;;;3.08;2.88;;;;;;;5.72;100.00;98361.06;5031872;28;20702;-60
2023/03/17 02:08:16;;;;;;;3.53;3.22;;;;;;;6.34;100.00;98454.59;5031682;28;20755;-60
2023/03/17 02:10:44;;;;;;;3.00;2.80;;;;;;;5.63;100.00;98358.94;5031794;28;20256;-60
2023/03/17 02:13:12;;;;;;;3.55;3.30;;;;;;;6.04;100.00;98445.88;5031756;28;20190;-60
2023/03/17 02:15:43;;;;;;;3.38;3.00;;;;;;;5.47;100.00;98360.63;5031749;28;20178;-60
2023/03/17 02:18:11;;;;;;;3.17;2.90;;;;;;;5.32;100.00;98362.19;5031731;28;20186;-60
2023/03/17 02:20:37;;;;;;;3.30;3.00;;;;;;;6.13;100.00;98481.34;5031615;28;20179;-60
2023/03/17 02:23:04;;;;;;;3.88;3.33;;;;;;;5.99;100.00;98470.94;5031561;28;20221;-60
2023/03/17 02:25:32;;;;;;;7.32;3.45;;;;;;;5.96;100.00;98476.25;5031575;28;20679;-60
2023/03/17 02:28:08;;;;;;;3.97;3.67;;;;;;;5.60;100.00;98429.19;5031342;28;20653;-60
2023/03/17 02:30:34;;;;;;;3.40;3.17;;;;;;;5.81;100.00;98479.53;5031552;28;20166;-60
2023/03/17 02:33:01;;;;;;;3.80;3.50;;;;;;;5.60;100.00;98431.75;5031388;28;20265;-60
2023/03/17 02:35:27;;;;;;;4.10;3.70;;;;;;;5.96;100.00;98465.97;5033341;28;20183;-60
2023/03/17 02:37:52;;;;;;;3.33;3.13;;;;;;;5.67;100.00;98384.38;5033692;28;20182;-60
2023/03/17 02:40:17;;;;;;;3.83;3.53;;;;;;;5.88;100.00;98393.59;5033336;28;20175;-60
2023/03/17 02:42:43;;;;;;;3.40;3.17;;;;;;;6.29;100.00;98476.31;5033592;28;20688;-60
2023/03/17 02:45:13;;;;;;;4.55;3.40;;;;;;;5.94;100.00;98444.66;5033532;28;20661;-60
2023/03/17 02:47:38;;;;;;;3.50;3.30;;;;;;;5.76;100.00;98395.94;5033429;28;20201;-60
2023/03/17 02:50:06;;;;;;;3.17;2.97;;;;;;;6.33;100.00;98490.63;5033456;28;20253;-60
2023/03/17 02:52:32;;;;;;;3.28;3.08;;;;;;;6.29;100.00;98487.38;5033420;28;20619;-60
2023/03/17 02:54:57;;;;;;;3.03;2.83;;;;;;;5.68;100.00;98392.91;5033236;28;20222;-60
2023/03/17 02:57:22;;;;;;;3.17;2.95;;;;;;;6.35;100.00;98494.78;5033413;28;20170;-60
2023/03/17 02:59:48;;;;;;;3.40;3.15;;;;;;;5.73;100.00;98404.63;5033293;28;20249;-60
2023/03/17 03:02:14;;;;;;;3.22;3.03;;;;;;;6.31;100.00;98492.47;5032926;28;20179;-60
2023/03/17 03:04:40;;;;;;;3.30;3.00;;;;;;;6.24;100.00;98479.06;5033152;28;20170;-60
2023/03/17 03:07:06;;;;;;;3.20;3.00;;;;;;;6.07;100.00;98476.50;5033062;28;20202;-60
2023/03/17 03:09:33;;;;;;;2.80;2.60;;;;;;;5.78;100.00;98435.19;5033208;28;20529;-60
2023/03/17 03:11:59;;;;;;;3.10;2.90;;;;;;;5.54;100.00;98408.16;5033023;28;20179;-60
2023/03/17 03:14:24;;;;;;;3.35;3.05;;;;;;;5.55;100.00;98413.19;5033002;28;20228;-60
2023/03/17 03:16:51;;;;;;;2.97;2.78;;;;;;;6.09;100.00;98479.84;5032970;28;20628;-60
2023/03/17 03:19:17;;;;;;;3.08;2.88;;;;;;;6.26;100.00;98467.00;5032827;28;20648;-60
2023/03/17 03:21:42;;;;;;;2.83;2.63;;;;;;;6.49;100.00;98522.38;5032804;28;20677;-60
2023/03/17 03:24:09;;;;;;;2.85;2.45;;;;;;;6.53;100.00;98498.19;5032802;28;20377;-60
2023/03/17 03:26:35;;;;;;;2.60;2.40;;;;;;;6.52;100.00;98506.81;5032743;28;20189;-60
2023/03/17 03:29:01;;;;;;;2.70;2.50;;;;;;;6.73;100.00;98539.97;5032694;28;20672;-60
2023/03/17 03:31:26;;;;;;;2.00;1.90;;;;;;;6.66;100.00;98538.63;5032665;28;20187;-60
2023/03/17 03:33:52;;;;;;;1.77;1.67;;;;;;;6.08;100.00;98478.19;5032695;28;20648;-60
2023/03/17 03:36:19;;;;;;;2.20;2.10;;;;;;;5.89;100.00;98445.78;5032569;28;20213;-60
2023/03/17 03:38:44;;;;;;;1.73;1.63;;;;;;;5.95;100.00;98484.81;5032563;28;20641;-60
2023/03/17 03:41:10;;;;;;;1.65;1.55;;;;;;;5.79;100.00;98465.94;5032791;28;20185;-60
2023/03/17 03:43:35;;;;;;;1.60;1.50;;;;;;;5.99;100.00;98493.19;5032252;28;20167;-60
2023/03/17 03:46:02;;;;;;;2.17;2.05;;;;;;;6.32;100.00;98506.97;5032145;28;20186;-60
2023/03/17 03:48:27;;;;;;;2.30;2.20;;;;;;;6.25;100.00;98516.72;5032389;28;20680;-60
2023/03/17 03:50:58;;;;;;;2.20;2.10;;;;;;;6.10;100.00;98486.66;5032389;28;20305;-60
2023/03/17 03:53:24;;;;;;;1.95;1.85;;;;;;;6.00;100.00;98495.72;5032383;28;20261;-60
2023/03/17 03:55:50;;;;;;;1.80;1.70;;;;;;;5.53;100.00;98462.94;5032353;28;20268;-60
2023/03/17 03:58:15;;;;;;;1.85;1.75;;;;;;;5.16;100.00;98427.09;5032258;28;20669;-60
2023/03/17 04:00:41;;;;;;;1.83;1.73;;;;;;;5.14;100.00;98434.03;5032275;28;20174;-61
2023/03/17 04:03:07;;;;;;;1.63;1.52;;;;;;;5.59;100.00;98484.00;5032240;28;20178;-60
2023/03/17 04:05:33;;;;;;;1.67;1.58;;;;;;;5.95;100.00;98519.97;5032213;28;20186;-60
2023/03/17 04:07:58;;;;;;;1.83;1.73;;;;;;;5.60;100.00;98460.00;5031392;28;20221;-60
2023/03/17 04:10:24;;;;;;;2.20;2.10;;;;;;;5.95;100.00;98502.00;5032178;28;20625;-60
2023/03/17 04:12:49;;;;;;;2.35;2.20;;;;;;;5.51;100.00;98464.75;5032177;28;20175;-60
2023/03/17 04:15:16;;;;;;;2.00;1.90;;;;;;;5.47;100.00;98458.09;5032186;28;20171;-60
2023/03/17 04:17:42;;;;;;;2.20;2.00;;;;;;;5.93;100.00;98522.59;5032139;28;20711;-60
2023/03/17 04:20:09;;;;;;;2.17;2.08;;;;;;;6.07;100.00;98556.13;5032136;28;20182;-60
2023/03/17 04:22:34;;;;;;;1.70;1.60;;;;;;;5.71;100.00;98508.28;5032139;28;20723;-60
2023/03/17 04:25:00;;;;;;;2.05;1.95;;;;;;;5.91;100.00;98533.84;5032092;28;20269;-60
2023/03/17 04:27:25;;;;;;;2.10;2.00;;;;;;;6.18;100.00;98561.59;5031994;28;20190;-60
2023/03/17 04:29:51;;;;;;;2.28;2.17;;;;;;;6.18;100.00;98576.19;5032079;28;20213;-61
2023/03/17 04:32:19;;;;;;;1.95;1.85;;;;;;;5.82;100.00;98516.31;5032013;28;20182;-60
2023/03/17 04:34:45;;;;;;;2.03;1.90;;;;;;;5.53;100.00;98483.47;5032009;28;20174;-60
2023/03/17 04:37:11;;;;;;;2.58;2.38;;;;;;;5.58;100.00;98513.13;5032011;28;20265;-60
2023/03/17 04:39:36;;;;;;;2.22;2.13;;;;;;;5.34;100.00;98483.50;5031639;28;20178;-60
2023/03/17 04:42:03;;;;;;;2.90;2.70;;;;;;;5.95;100.00;98579.84;5031978;28;20236;-60
2023/03/17 04:44:28;;;;;;;2.78;2.58;;;;;;;5.60;100.00;98534.41;5032216;28;20189;-60
2023/03/17 04:46:54;;;;;;;2.22;2.10;;;;;;;6.00;100.00;98588.16;5031869;28;20171;-61
2023/03/17 04:49:20;;;;;;;2.35;2.25;;;;;;;6.19;100.00;98594.06;5031841;28;20206;-60
2023/03/17 04:51:45;;;;;;;2.13;2.03;;;;;;;5.76;100.00;98493.47;5031862;28;20186;-60
2023/03/17 04:54:11;;;;;;;1.85;1.75;;;;;;;6.16;100.00;98583.97;5031875;28;20171;-60
2023/03/17 04:56:36;;;;;;;2.08;1.98;;;;;;;5.79;100.00;98514.69;5031905;28;20222;-60
2023/03/17 04:59:02;;;;;;;2.47;2.35;;;;;;;5.78;100.00;98510.44;5031829;28;20536;-60
2023/03/17 05:01:27;;;;;;;3.28;1.75;;;;;;;6.29;100.00;98587.59;5031768;28;20190;-60
2023/03/17 05:03:53;;;;;;;2.15;2.05;;;;;;;6.06;100.00;98557.03;5031753;28;20652;-60
2023/03/17 05:06:18;;;;;;;2.13;1.95;;;;;;;6.48;100.00;98626.09;5031815;28;20280;-60
2023/03/17 05:08:44;;;;;;;2.53;2.33;;;;;;;6.46;100.00;98607.34;5031347;28;20197;-60
2023/03/17 05:11:13;;;;;;;3.83;3.45;;;;;;;6.66;98.97;98620.88;5031655;28;20183;-60
2023/03/17 05:13:39;;;;;;;2.97;2.67;;;;;;;6.67;96.81;98624.28;5031623;28;20201;-60
2023/03/17 05:16:06;;;;;;;3.05;2.85;;;;;;;6.44;96.62;98581.72;5031571;28;20178;-60
2023/03/17 05:18:32;;;;;;;3.17;2.88;;;;;;;6.71;97.78;98647.16;5031769;28;20324;-60
2023/03/17 05:20:57;;;;;;;3.47;3.00;;;;;;;6.56;98.65;98613.69;5035181;28;20265;-60
2023/03/17 05:23:23;;;;;;;3.47;3.28;;;;;;;6.49;98.54;98592.59;5035374;28;20182;-60
2023/03/17 05:25:49;;;;;;;3.17;2.88;;;;;;;6.87;97.66;98640.38;5035014;28;20193;-60
2023/03/17 05:28:14;;;;;;;3.00;2.80;;;;;;;6.65;96.82;98593.50;5034844;28;20225;-60
2023/03/17 05:30:41;;;;;;;3.25;2.95;;;;;;;6.74;96.05;98603.31;5034696;28;20175;-60
2023/03/17 05:33:06;;;;;;;3.80;3.53;;;;;;;7.01;96.18;98648.25;5034932;28;20186;-60
2023/03/17 05:35:32;;;;;;;3.15;2.95;;;;;;;7.04;96.17;98650.66;5034806;28;20183;-60
2023/03/17 05:37:58;;;;;;;3.00;2.80;;;;;;;6.60;95.76;98568.94;5034783;28;20186;-60
2023/03/17 05:40:23;;;;;;;3.72;3.42;;;;;;;6.89;93.82;98605.13;5034797;28;20175;-60
2023/03/17 05:42:51;;;;;;;4.38;3.95;;;;;;;7.21;92.42;98660.91;5034755;28;20265;-60
2023/03/17 05:45:17;;;;;;;4.43;4.03;;;;;;;7.15;90.58;98660.38;5034664;28;20232;-61
2023/03/17 05:47:46;;;;;;;4.32;3.70;;;;;;;6.93;91.26;98647.78;5034531;28;20202;-60
2023/03/17 05:50:12;;;;;;;5.15;4.43;;;;;;;7.09;91.47;98671.84;5034449;28;20178;-60
2023/03/17 05:52:38;;;;;;;5.55;4.50;;;;;;;6.64;90.21;98596.97;5034546;28;20205;-60
2023/03/17 05:55:04;;;;;;;6.90;4.47;;;;;;;6.69;89.71;98571.88;5034409;28;20336;-60
2023/03/17 05:57:30;;;;;;;5.75;5.22;;;;;;;7.35;90.21;98676.47;5034509;28;20179;-60
2023/03/17 05:59:56;;;;;;;7.00;5.50;;;;;;;7.30;90.97;98668.19;5034396;28;20253;-60
2023/03/17 06:02:21;;;;;;;6.55;5.47;;;;;;;6.88;91.28;98594.91;5034417;28;20637;-60
2023/03/17 06:04:47;;;;;;;10.38;9.32;;;;;;;7.30;91.38;98639.03;5034158;28;20214;-61
2023/03/17 06:07:12;;;;;;;8.52;6.60;;;;;;;7.51;91.28;98669.63;5033943;28;20226;-61
2023/03/17 06:09:38;;;;;;;6.82;5.63;;;;;;;7.60;90.68;98673.47;5034242;28;20178;-61
2023/03/17 06:12:04;;;;;;;8.88;6.43;;;;;;;7.35;90.38;98629.31;5033727;28;20171;-61
2023/03/17 06:14:29;;;;;;;12.43;7.65;;;;;;;7.46;88.95;98645.84;5052375;28;20186;-60
2023/03/17 06:16:54;;;;;;;16.25;7.65;;;;;;;7.14;88.35;98592.66;5054167;28;20632;-60
2023/03/17 06:19:20;;;;;;;7.32;5.93;;;;;;;7.71;87.23;98666.00;5053906;28;20174;-63
2023/03/17 06:21:46;;;;;;;6.18;5.00;;;;;;;7.86;86.39;98686.63;5053856;28;20174;-60
2023/03/17 06:24:11;;;;;;;6.93;5.10;;;;;;;7.36;85.25;98603.53;5053602;28;20182;-61
2023/03/17 06:26:37;;;;;;;7.22;5.05;;;;;;;7.78;85.75;98667.34;5053736;28;20176;-60
2023/03/17 06:29:10;;;;;;;6.93;5.65;;;;;;;7.58;84.82;98622.03;5053208;28;20202;-60
2023/03/17 06:31:36;;;;;;;5.85;5.28;;;;;;;8.11;82.61;98709.34;5053736;28;20644;-60
2023/03/17 06:34:02;;;;;;;7.10;4.90;;;;;;;8.10;80.54;98718.81;5053730;28;20312;-60
2023/03/17 06:36:27;;;;;;;13.60;5.53;;;;;;;7.91;80.86;98694.09;5053614;28;20184;-60
2023/03/17 06:38:53;;;;;;;7.25;6.38;;;;;;;7.93;81.22;98672.50;5053692;28;20182;-60
2023/03/17 06:41:18;;;;;;;12.32;7.47;;;;;;;7.64;80.75;98624.28;5053699;28;20550;-61
2023/03/17 06:43:44;;;;;;;12.93;7.22;;;;;;;7.98;81.09;98655.06;5053021;28;20177;-60
2023/03/17 06:46:09;;;;;;;6.57;5.95;;;;;;;7.78;80.09;98634.69;5053412;28;20260;-60
2023/03/17 06:48:35;;;;;;;5.43;4.50;;;;;;;8.00;80.21;98673.84;5053239;28;20210;-61
2023/03/17 06:51:01;;;;;;;7.05;4.30;;;;;;;7.99;78.69;98690.19;5053453;28;20181;-60
2023/03/17 06:53:26;;;;;;;9.25;4.65;;;;;;;8.06;78.25;98704.44;5053335;28;20269;-60
2023/03/17 06:55:52;;;;;;;5.80;3.95;;;;;;;8.17;77.47;98727.91;5053477;28;20276;-61
2023/03/17 06:58:19;;;;;;;3.90;3.60;;;;;;;7.87;76.64;98677.97;5053325;28;20185;-60
2023/03/17 07:00:45;;;;;;;4.30;3.15;;;;;;;8.39;76.33;98746.44;5053212;28;20174;-60
2023/03/17 07:03:11;;;;;;;5.35;2.72;;;;;;;8.38;75.69;98726.75;5053051;28;20186;-61
2023/03/17 07:05:38;;;;;;;4.65;3.22;;;;;;;8.44;75.41;98718.69;5052943;28;20177;-61
2023/03/17 07:08:04;;;;;;;3.67;3.38;;;;;;;8.42;74.93;98689.56;5052865;28;20255;-60
2023/03/17 07:10:31;;;;;;;4.90;3.65;;;;;;;8.78;73.44;98736.53;5052916;28;20170;-60
2023/03/17 07:12:57;;;;;;;4.15;3.78;;;;;;;8.64;72.80;98718.41;5052725;28;20235;-61
2023/03/17 07:15:22;;;;;;;5.85;3.45;;;;;;;8.39;72.37;98656.22;5052733;28;20220;-61
2023/03/17 07:17:48;;;;;;;4.40;3.70;;;;;;;8.80;71.90;98702.91;5052725;28;20199;-60
2023/03/17 07:20:14;;;;;;;6.13;3.20;;;;;;;8.76;70.27;98679.03;5030684;28;20190;-60
2023/03/17 07:22:40;;;;;;;3.42;2.80;;;;;;;9.34;68.74;98752.19;5030299;28;20225;-60
2023/03/17 07:25:06;;;;;;;3.45;3.00;;;;;;;8.94;65.95;98675.41;5030454;28;20590;-61
2023/03/17 07:27:33;;;;;;;2.30;2.10;;;;;;;9.51;65.06;98753.78;5030293;28;20202;-60
2023/03/17 07:30:01;;;;;;;2.08;1.98;;;;;;;9.05;63.89;98672.19;5030508;28;20657;-60
2023/03/17 07:32:26;;;;;;;3.78;2.03;;;;;;;9.29;63.46;98715.47;5030037;28;20194;-60
2023/03/17 07:34:53;;;;;;;2.40;2.20;;;;;;;9.54;63.96;98764.75;5029902;28;20623;-60
2023/03/17 07:37:20;;;;;;;4.82;3.17;;;;;;;9.33;59.93;98740.19;5029838;28;20183;-61
2023/03/17 07:39:46;;;;;;;5.15;3.30;;;;;;;8.98;59.83;98710.41;5029546;28;20665;-60
2023/03/17 07:42:14;;;;;;;2.50;2.30;;;;;;;8.73;58.00;98671.47;5029400;28;20186;-60
2023/03/17 07:44:40;;;;;;;3.00;2.20;;;;;;;8.82;58.85;98701.91;5029585;28;20641;-60
2023/03/17 07:47:06;;;;;;;2.05;1.90;;;;;;;8.66;56.92;98692.50;5030013;28;20273;-61
2023/03/17 07:49:32;;;;;;;1.90;1.70;;;;;;;8.43;56.91;98668.03;5029908;28;20261;-61
2023/03/17 07:51:57;;;;;;;1.85;1.75;;;;;;;8.98;57.33;98758.63;5047880;28;20630;-61
2023/03/17 07:54:24;;;;;;;2.33;1.80;;;;;;;8.85;56.70;98760.25;5052266;28;20263;-61
2023/03/17 07:56:50;;;;;;;2.92;2.55;;;;;;;8.50;57.64;98699.47;5052397;28;20236;-60
2023/03/17 07:59:15;;;;;;;2.47;2.25;;;;;;;8.89;57.93;98759.97;5052206;28;20636;-61
2023/03/17 08:01:41;;;;;;;5.43;2.58;;;;;;;8.99;57.80;98768.03;5052208;28;20235;-61
2023/03/17 08:04:07;;;;;;;2.40;2.30;;;;;;;8.50;58.64;98653.06;5051537;28;20261;-60
2023/03/17 08:06:32;;;;;;;5.80;4.40;;;;;;;9.11;57.98;98757.84;5051975;28;20181;-60
2023/03/17 08:08:58;;;;;;;5.82;2.95;;;;;;;9.18;58.39;98769.50;5051835;28;20676;-60
2023/03/17 08:11:23;;;;;;;2.42;2.13;;;;;;;8.90;57.23;98725.50;5051844;28;20213;-59
2023/03/17 08:13:49;;;;;;;2.15;1.90;;;;;;;8.78;57.44;98678.91;5051694;28;20636;-61
2023/03/17 08:16:15;;;;;;;2.28;1.60;;;;;;;8.93;57.47;98704.72;5052025;28;20170;-59
2023/03/17 08:18:41;;;;;;;2.15;2.05;;;;;;;9.08;57.83;98692.66;5052185;28;20269;-59
2023/03/17 08:21:06;;;;;;;68.72;40.95;;;;;;;9.47;56.42;98757.47;5051974;28;20181;-59
2023/03/17 08:23:32;;;;;;;23.08;11.57;;;;;;;8.97;56.68;98680.38;5051752;28;20198;-59
2023/03/17 08:26:02;;;;;;;28.95;14.57;;;;;;;8.89;56.32;98667.09;5052210;28;20189;-59
2023/03/17 08:28:28;;;;;;;3.47;2.85;;;;;;;9.29;55.15;98718.06;5051102;28;20193;-59
2023/03/17 08:30:53;;;;;;;2.30;2.08;;;;;;;9.43;55.21;98771.50;5052009;28;20177;-59
2023/03/17 08:33:20;;;;;;;2.30;2.10;;;;;;;8.68;55.97;98665.72;5051949;28;20558;-59
2023/03/17 08:35:45;;;;;;;21.90;12.43;;;;;;;8.95;56.31;98682.22;5051986;28;20672;-60
2023/03/17 08:38:11;;;;;;;7.60;4.18;;;;;;;8.82;54.69;98668.38;5051979;28;20173;-59
2023/03/17 08:40:37;;;;;;;3.20;2.78;;;;;;;9.24;54.40;98743.31;5051923;28;20591;-59
2023/03/17 08:43:03;;;;;;;5.47;4.57;;;;;;;8.92;55.17;98666.09;5051618;28;20174;-59
2023/03/17 08:45:29;;;;;;;2.40;2.30;;;;;;;9.01;56.25;98697.34;5051881;28;20261;-60
2023/03/17 08:47:54;;;;;;;2.85;2.15;;;;;;;9.53;55.60;98747.63;5051748;28;20690;-60
2023/03/17 08:50:22;;;;;;;4.53;3.22;;;;;;;9.46;56.55;98735.97;5051557;28;20174;-59
2023/03/17 08:52:48;;;;;;;2.20;2.10;;;;;;;9.30;55.77;98704.22;5052704;28;20185;-59
2023/03/17 08:55:15;;;;;;;6.43;3.10;;;;;;;9.31;56.32;98694.75;5055420;28;20193;-59
2023/03/17 08:57:41;;;;;;;10.60;9.70;;;;;;;9.49;56.75;98740.97;5055595;28;20652;-59
2023/03/17 09:00:10;;;;;;;4.60;4.30;;;;;;;9.83;56.17;98751.78;5055570;28;20178;-59
2023/03/17 09:02:41;;;;;;;4.15;3.80;;;;;;;9.96;55.11;98726.88;5055523;28;20166;-60
2023/03/17 09:05:08;;;;;;;5.22;2.17;;;;;;;10.18;53.65;98705.72;5055550;28;20604;-59
2023/03/17 09:07:33;;;;;;;2.33;1.80;;;;;;;10.17;52.63;98668.66;5055327;28;20233;-59
2023/03/17 09:09:59;;;;;;;1.73;1.63;;;;;;;10.72;51.56;98700.47;5055683;28;20208;-60
2023/03/17 09:12:25;;;;;;;2.72;2.10;;;;;;;11.17;51.21;98738.91;5055293;28;20181;-59
2023/03/17 09:14:50;;;;;;;4.00;2.05;;;;;;;11.09;51.51;98723.03;5032900;28;20225;-59
2023/03/17 09:17:16;;;;;;;1.88;1.77;;;;;;;11.18;51.01;98748.34;5013055;28;20198;-59
2023/03/17 09:19:42;;;;;;;2.20;2.10;;;;;;;10.97;50.28;98712.66;5013109;28;20195;-59
2023/03/17 09:22:12;;;;;;;2.47;1.75;;;;;;;11.23;49.23;98761.81;5013131;28;20640;-60
2023/03/17 09:24:38;;;;;;;1.92;1.75;;;;;;;11.10;49.24;98742.00;5013146;28;20697;-59
2023/03/17 09:27:04;;;;;;;2.08;1.70;;;;;;;10.87;49.49;98730.56;5012912;28;20242;-60
2023/03/17 09:29:30;;;;;;;4.70;2.20;;;;;;;10.69;49.86;98694.66;5013019;28;20187;-60
2023/03/17 09:31:55;;;;;;;2.28;2.08;;;;;;;10.96;49.22;98742.03;5012911;28;20187;-60
2023/03/17 09:34:21;;;;;;;1.80;1.70;;;;;;;10.84;48.46;98707.44;5012796;28;20193;-59
2023/03/17 09:36:47;;;;;;;1.75;1.60;;;;;;;10.87;48.63;98714.19;5012801;28;20205;-59
2023/03/17 09:39:13;;;;;;;2.00;1.90;;;;;;;10.89;48.25;98696.78;5012770;28;20218;-60
2023/03/17 09:42:15;;;;;;;3.42;2.45;;;;;;;11.26;47.72;98751.25;5012704;28;20187;-60
2023/03/17 09:44:57;;;;;;;1.75;1.65;;;;;;;11.13;47.59;98710.69;5013786;28;20175;-60
2023/03/17 09:47:38;;;;;;;3.00;1.95;;;;;;;11.49;47.32;98758.31;5015193;28;20222;-61
2023/03/17 09:50:11;;;;;;;1.90;1.80;;;;;;;11.05;46.42;98692.25;5032342;28;20281;-60
2023/03/17 09:52:37;;;;;;;2.22;1.77;;;;;;;11.46;46.99;98748.19;5032370;28;20661;-60
2023/03/17 09:55:07;;;;;;;1.98;1.88;;;;;;;11.15;46.46;98681.19;5032092;28;20213;-64
2023/03/17 09:57:35;;;;;;;2.28;2.08;;;;;;;11.32;45.97;98703.41;5051960;28;20197;-59
2023/03/17 10:00:36;;;;;;;3.15;1.77;;;;;;;11.72;46.07;98751.66;5052058;28;20578;-59
2023/03/17 10:03:02;;;;;;;20.83;10.52;;;;;;;11.10;45.73;98659.94;5012211;28;20187;-59
2023/03/17 10:05:34;;;;;;;5.55;3.30;;;;;;;10.82;45.72;98667.91;5011544;28;20194;-59
2023/03/17 10:08:19;;;;;;;4.85;3.90;;;;;;;10.75;46.39;98660.63;5012349;28;20268;-59
2023/03/17 10:11:03;;;;;;;1.95;1.85;;;;;;;11.46;45.13;98747.34;5012201;28;20183;-59
2023/03/17 10:13:56;;;;;;;2.50;2.17;;;;;;;11.66;45.65;98744.25;5012254;28;20286;-59
2023/03/17 10:16:35;;;;;;;2.20;2.00;;;;;;;11.72;46.09;98741.28;5012164;28;20242;-60
2023/03/17 10:19:13;;;;;;;3.55;2.58;;;;;;;11.80;45.14;98733.81;5027077;28;20314;-59
2023/03/17 10:21:47;;;;;;;2.78;2.58;;;;;;;11.39;44.62;98642.47;5031859;28;20159;-60
2023/03/17 10:24:15;;;;;;;2.65;2.40;;;;;;;11.71;45.11;98690.34;5031813;28;20637;-59
2023/03/17 10:26:49;;;;;;;4.50;2.30;;;;;;;11.51;45.11;98647.66;5031655;28;20182;-59
2023/03/17 10:29:21;;;;;;;2.50;2.30;;;;;;;12.02;44.53;98727.03;5015960;28;20276;-60
2023/03/17 10:31:47;;;;;;;2.75;2.45;;;;;;;12.01;43.79;98715.00;5011895;28;20168;-60
2023/03/17 10:34:20;;;;;;;3.38;2.40;;;;;;;12.09;44.35;98738.63;5011798;28;20191;-60
2023/03/17 10:36:50;;;;;;;5.63;2.97;;;;;;;12.09;44.88;98730.03;5028238;28;20681;-59
2023/03/17 10:39:22;;;;;;;59.63;21.55;;;;;;;11.31;44.52;98655.91;5054030;28;20178;-59
2023/03/17 10:42:06;;;;;;;18.70;7.00;;;;;;;10.96;45.56;98666.97;5053709;28;20212;-59
2023/03/17 10:44:41;;;;;;;6.35;3.60;;;;;;;11.36;45.86;98725.56;5053480;28;20167;-59
2023/03/17 10:47:19;;;;;;;3.55;2.83;;;;;;;11.07;46.02;98665.34;5051112;28;20196;-59
2023/03/17 10:49:45;;;;;;;2.22;1.80;;;;;;;11.03;44.86;98643.16;5051175;28;20201;-59
2023/03/17 10:52:22;;;;;;;1.65;1.55;;;;;;;11.19;44.47;98667.09;5051144;28;20224;-59
2023/03/17 10:54:51;;;;;;;5.53;2.88;;;;;;;11.62;45.12;98722.91;5050948;28;20173;-59
2023/03/17 10:57:18;;;;;;;2.42;2.33;;;;;;;11.17;46.18;98637.06;5051060;28;20624;-59
2023/03/17 10:59:51;;;;;;;6.45;2.40;;;;;;;11.32;46.50;98656.75;5050948;28;20654;-59
2023/03/17 11:02:28;;;;;;;2.70;2.50;;;;;;;11.68;47.19;98722.47;5051019;28;20162;-59
2023/03/17 11:05:08;;;;;;;2.28;2.10;;;;;;;11.70;47.02;98714.63;5050895;28;20196;-59
2023/03/17 11:07:39;;;;;;;2.60;2.40;;;;;;;11.20;47.47;98644.66;5050811;28;20588;-59
2023/03/17 11:10:24;;;;;;;3.53;2.40;;;;;;;11.77;46.92;98727.06;5050745;28;20722;-59
2023/03/17 11:13:00;;;;;;;2.92;2.72;;;;;;;11.66;46.74;98719.19;5050772;28;20189;-59
2023/03/17 11:15:52;;;;;;;2.80;2.53;;;;;;;11.45;47.63;98704.22;5050532;28;20188;-59
2023/03/17 11:18:27;;;;;;;2.80;2.15;;;;;;;11.05;47.66;98619.75;4990941;28;20243;-58
2023/03/17 11:21:14;;;;;;;2.00;1.88;;;;;;;11.63;47.44;98713.38;4991233;28;20191;-59
2023/03/17 11:24:11;;;;;;;2.03;1.85;;;;;;;11.56;46.72;98668.06;4993975;28;20206;-59
2023/03/17 11:26:52;;;;;;;2.85;1.90;;;;;;;11.87;45.90;98711.69;5010930;28;20258;-59
2023/03/17 11:29:23;;;;;;;2.70;2.50;;;;;;;11.73;46.64;98681.53;5010693;28;20250;-59
2023/03/17 11:32:14;;;;;;;7.93;2.58;;;;;;;11.98;46.17;98706.59;5010786;28;20601;-59
2023/03/17 11:34:50;;;;;;;4.05;2.72;;;;;;;11.97;45.59;98697.16;5010783;28;20675;-60
2023/03/17 11:37:48;;;;;;;3.75;2.95;;;;;;;11.97;45.71;98708.34;5010687;28;20159;-59
2023/03/17 11:40:58;;;;;;;3.05;2.78;;;;;;;11.99;45.39;98698.72;5010589;28;20246;-59
2023/03/17 11:43:40;;;;;;;2.97;2.75;;;;;;;11.88;45.07;98696.03;4971542;28;20185;-59